LGRX/GPA METAR and TAF weather

Enter ICAO airport designator
Station Type Date Time Source
LGRX METAR 2019/08/24 22:50 UTC NOAA

LGRX 242250Z VRB03KT CAVOK 28/16 Q1013


Station Type Date Time Source
LGRX Decoded METAR 2019/08/24 22:50 UTC NOAA

Station name not available
Aug 24, 2019 - 06:50 PM EDT / 2019.08.24 2250 UTC
Wind: Variable at 3 MPH (3 KT):0
Visibility: greater than 7 mile(s):0
Temperature: 82 F (28 C)
Dew Point: 60 F (16 C)
Relative Humidity: 48%
Pressure (altimeter): 29.91 in. Hg (1013 hPa)
ob: LGRX 242250Z VRB03KT CAVOK 28/16 Q1013
cycle: 23

Station Type Date Time Source
LGRX TAF 2017/09/23 18:36 UTC NOAA

TAF TAF LGRX 231700Z 2318/2406 33010KT 9999 FEW025
BECMG 2322/2324 VRB03KT

Example: see airport list